Time;durP1;ratioP1;P1;durP2;ratioP2;P2;SDS_P1;SDS_P2;PMS_P1;PMS_P2;Temp;Humidity;BMP_temperature;BMP_pressure;BME280_temperature;BME280_humidity;BME280_pressure;Samples;Min_cycle;Max_cycle;Signal;HPM_P1;HPM_P2
2023/06/01 00:02:15;;;;;;;7.93;3.47;;;;;;;13.67;46.54;100307.19;4231672;28;20810;-68
2023/06/01 00:04:41;;;;;;;9.90;2.70;;;;;;;13.67;45.99;100297.13;4209195;28;23461;-69
2023/06/01 00:07:10;;;;;;;7.33;2.90;;;;;;;13.61;46.38;100301.41;4209678;28;20252;-69
2023/06/01 00:09:37;;;;;;;16.17;3.03;;;;;;;13.66;46.68;100294.59;4221881;28;20228;-68
2023/06/01 00:12:05;;;;;;;7.57;2.87;;;;;;;13.75;46.14;100296.28;4230455;28;20239;-68
2023/06/01 00:14:32;;;;;;;10.40;2.67;;;;;;;13.67;46.10;100296.28;4205125;28;20303;-70
2023/06/01 00:17:00;;;;;;;7.20;2.73;;;;;;;13.59;46.66;100292.56;4221586;28;22793;-69
2023/06/01 00:19:27;;;;;;;8.03;2.90;;;;;;;13.57;46.45;100280.16;4238362;28;25384;-69
2023/06/01 00:21:55;;;;;;;11.53;3.20;;;;;;;13.39;47.04;100281.19;4203478;28;20250;-68
2023/06/01 00:24:23;;;;;;;9.93;3.47;;;;;;;13.45;46.93;100285.09;4212418;28;21765;-69
2023/06/01 00:26:50;;;;;;;10.53;3.10;;;;;;;13.50;46.60;100281.88;4207790;28;20241;-68
2023/06/01 00:29:17;;;;;;;8.47;2.87;;;;;;;13.53;46.63;100281.50;4235562;28;20245;-69
2023/06/01 00:31:44;;;;;;;6.23;2.90;;;;;;;13.48;46.53;100273.88;4208174;28;20320;-69
2023/06/01 00:34:11;;;;;;;7.47;3.00;;;;;;;13.46;46.58;100274.03;4208409;28;20244;-68
2023/06/01 00:36:38;;;;;;;7.27;2.87;;;;;;;13.41;46.58;100273.72;4221215;28;20239;-68
2023/06/01 00:39:05;;;;;;;9.30;2.80;;;;;;;13.42;46.98;100264.53;4214495;28;20258;-69
2023/06/01 00:41:32;;;;;;;6.93;2.70;;;;;;;13.40;46.84;100265.72;4223739;28;20796;-69
2023/06/01 00:43:59;;;;;;;8.70;3.10;;;;;;;13.32;47.14;100263.81;4206823;28;20246;-69
2023/06/01 00:46:27;;;;;;;6.70;2.97;;;;;;;13.42;46.86;100263.66;4204721;28;20274;-68
2023/06/01 00:48:54;;;;;;;9.10;2.80;;;;;;;13.31;46.87;100267.53;4202529;28;20239;-69
2023/06/01 00:51:21;;;;;;;6.07;2.80;;;;;;;13.28;46.77;100265.19;4214018;28;21177;-69
2023/06/01 00:53:48;;;;;;;7.77;2.93;;;;;;;13.43;46.23;100257.22;4207880;28;20797;-69
2023/06/01 00:56:14;;;;;;;7.93;3.17;;;;;;;13.36;46.52;100259.75;4211011;28;20286;-68
2023/06/01 00:58:41;;;;;;;12.33;3.27;;;;;;;13.31;46.41;100260.25;4208201;28;21048;-68
2023/06/01 01:01:08;;;;;;;7.20;3.20;;;;;;;13.36;46.98;100261.59;4191398;28;20239;-68
2023/06/01 01:03:38;;;;;;;6.23;2.50;;;;;;;13.31;46.49;100262.09;4217409;28;20297;-68
2023/06/01 01:06:13;;;;;;;7.80;3.03;;;;;;;13.22;47.14;100263.16;4191431;28;20235;-68
2023/06/01 01:09:00;;;;;;;7.10;2.70;;;;;;;13.30;46.40;100266.72;4200985;28;20362;-68
2023/06/01 01:11:29;;;;;;;6.53;2.57;;;;;;;13.32;46.76;100258.38;4206659;28;25526;-70
2023/06/01 01:14:05;;;;;;;7.83;2.93;;;;;;;13.31;46.43;100262.97;4200973;28;20228;-67
2023/06/01 01:16:40;;;;;;;6.57;2.70;;;;;;;13.20;46.36;100254.31;4207025;28;20243;-69
2023/06/01 01:19:53;;;;;;;6.33;2.30;;;;;;;13.26;46.37;100261.78;4207978;28;21448;-68
2023/06/01 01:22:41;;;;;;;8.07;2.73;;;;;;;13.23;46.19;100254.81;4236562;28;20240;-69
2023/06/01 01:25:25;;;;;;;5.63;3.00;;;;;;;13.21;46.22;100245.97;4225940;28;21131;-72
2023/06/01 01:28:25;;;;;;;12.27;2.90;;;;;;;13.14;47.30;100247.66;4206526;28;25647;-69
2023/06/01 01:30:54;;;;;;;8.30;2.90;;;;;;;13.11;47.00;100243.44;4240270;28;21786;-68
2023/06/01 01:33:21;;;;;;;8.53;2.60;;;;;;;13.27;46.04;100237.13;4226254;28;21279;-69
2023/06/01 01:35:49;;;;;;;8.27;2.60;;;;;;;13.28;46.37;100238.00;4210819;28;20239;-69
2023/06/01 01:38:16;;;;;;;11.40;2.87;;;;;;;13.17;46.07;100228.31;4203924;28;20231;-67
2023/06/01 01:40:43;;;;;;;9.77;2.90;;;;;;;13.18;46.72;100237.31;4237030;28;21838;-70
2023/06/01 01:43:10;;;;;;;6.40;2.43;;;;;;;13.08;46.59;100234.75;4222875;28;20299;-69
2023/06/01 01:45:37;;;;;;;8.50;2.60;;;;;;;12.97;46.85;100235.94;4214871;28;20236;-68
2023/06/01 01:48:23;;;;;;;7.23;2.77;;;;;;;13.06;46.96;100234.06;4219141;28;20300;-68
2023/06/01 01:51:03;;;;;;;7.50;2.57;;;;;;;12.87;47.23;100224.38;4236081;28;20236;-68
2023/06/01 01:53:30;;;;;;;6.03;2.47;;;;;;;12.93;46.45;100218.25;4221714;28;21010;-68
2023/06/01 01:55:58;;;;;;;6.60;2.47;;;;;;;13.03;46.18;100218.97;4205294;28;20654;-68
2023/06/01 01:58:26;;;;;;;7.97;2.73;;;;;;;13.06;46.12;100228.63;4220579;28;20236;-67
2023/06/01 02:00:53;;;;;;;6.97;2.27;;;;;;;12.95;46.56;100224.38;4215259;28;20670;-68
2023/06/01 02:03:20;;;;;;;7.80;3.03;;;;;;;12.93;46.33;100224.56;4197980;28;21621;-69
2023/06/01 02:05:47;;;;;;;10.03;2.03;;;;;;;12.97;46.27;100222.34;4226947;28;20235;-69
2023/06/01 02:08:13;;;;;;;7.23;2.10;;;;;;;12.96;46.72;100220.66;4209164;28;20957;-68
2023/06/01 02:10:40;;;;;;;9.67;2.60;;;;;;;12.82;46.65;100217.59;4214107;28;25136;-67
2023/06/01 02:13:07;;;;;;;7.07;2.40;;;;;;;12.77;46.94;100210.94;4213831;28;22788;-69
2023/06/01 02:15:33;;;;;;;18.47;2.80;;;;;;;12.63;47.73;100210.59;4216423;28;25270;-69
2023/06/01 02:18:00;;;;;;;8.00;2.70;;;;;;;12.68;47.57;100213.66;4175774;28;20313;-67
2023/06/01 02:20:27;;;;;;;4.17;2.40;;;;;;;12.84;46.86;100210.09;4223493;28;20285;-68
2023/06/01 02:22:53;;;;;;;8.97;2.60;;;;;;;12.81;46.87;100212.31;4201796;28;20318;-68
2023/06/01 02:25:20;;;;;;;6.53;2.40;;;;;;;12.89;46.65;100212.31;4200318;28;20239;-68
2023/06/01 02:27:46;;;;;;;10.23;2.50;;;;;;;12.90;47.06;100210.47;4216087;28;20405;-69
2023/06/01 02:30:13;;;;;;;9.97;2.80;;;;;;;12.75;47.56;100202.97;4221982;28;20260;-69
2023/06/01 02:32:39;;;;;;;6.20;2.60;;;;;;;12.75;47.72;100210.25;4192770;28;23590;-68
2023/06/01 02:35:06;;;;;;;6.40;2.67;;;;;;;12.70;47.77;100208.03;4210241;28;20249;-69
2023/06/01 02:37:33;;;;;;;14.53;2.90;;;;;;;12.70;47.79;100201.78;4210182;28;20297;-69
2023/06/01 02:40:00;;;;;;;6.10;2.50;;;;;;;12.78;47.30;100210.78;4196029;28;20240;-67
2023/06/01 02:42:26;;;;;;;6.20;2.23;;;;;;;12.77;47.27;100202.81;4205287;28;21994;-69
2023/06/01 02:44:53;;;;;;;6.83;2.70;;;;;;;12.81;47.10;100194.16;4207388;28;20247;-68
2023/06/01 02:47:19;;;;;;;10.53;2.83;;;;;;;12.93;46.63;100197.38;4230408;28;20347;-68
2023/06/01 02:49:46;;;;;;;11.00;2.50;;;;;;;13.06;45.94;100196.03;4201187;28;20232;-68
2023/06/01 02:52:13;;;;;;;11.50;2.50;;;;;;;12.99;46.16;100196.72;4226231;28;20306;-67
2023/06/01 02:54:40;;;;;;;17.03;2.63;;;;;;;13.08;45.73;100191.28;4187355;28;21715;-68
2023/06/01 02:57:06;;;;;;;14.33;3.63;;;;;;;12.97;47.09;100198.75;4199747;28;20451;-68
2023/06/01 02:59:33;;;;;;;11.10;3.00;;;;;;;13.03;46.12;100193.66;4218627;28;21401;-68
2023/06/01 03:02:00;;;;;;;8.40;2.53;;;;;;;13.14;45.81;100185.16;4195231;28;20244;-68
2023/06/01 03:04:28;;;;;;;9.40;2.80;;;;;;;13.05;46.22;100199.75;4181081;28;22084;-68
2023/06/01 03:06:56;;;;;;;9.20;2.67;;;;;;;13.06;46.26;100190.59;4206468;28;20235;-69
2023/06/01 03:09:23;;;;;;;10.43;2.80;;;;;;;13.13;45.69;100192.47;4223200;28;21771;-69
2023/06/01 03:11:49;;;;;;;10.93;3.03;;;;;;;13.09;47.16;100191.09;4217750;28;21139;-70
2023/06/01 03:14:16;;;;;;;6.50;2.83;;;;;;;13.06;46.88;100190.59;4191786;28;20358;-68
2023/06/01 03:16:42;;;;;;;12.83;2.77;;;;;;;13.02;47.30;100183.81;4227300;28;21128;-68
2023/06/01 03:19:09;;;;;;;8.23;2.90;;;;;;;13.13;47.13;100188.88;4219036;28;20227;-68
2023/06/01 03:21:36;;;;;;;12.83;2.63;;;;;;;13.09;47.89;100185.66;4213347;28;22441;-68
2023/06/01 03:24:03;;;;;;;7.60;2.87;;;;;;;13.05;48.05;100187.03;4193363;28;20235;-68
2023/06/01 03:26:30;;;;;;;9.60;3.03;;;;;;;13.15;47.71;100181.41;4194116;28;20260;-69
2023/06/01 03:28:57;;;;;;;12.57;2.33;;;;;;;13.13;48.11;100184.31;4223627;28;20242;-69
2023/06/01 03:31:23;;;;;;;11.33;2.77;;;;;;;13.06;48.44;100177.88;4195853;28;20238;-68
2023/06/01 03:33:51;;;;;;;10.67;2.80;;;;;;;13.10;48.68;100181.94;4228045;28;25622;-70
2023/06/01 03:36:18;;;;;;;11.27;2.30;;;;;;;13.00;48.42;100178.53;4183606;28;20242;-69
2023/06/01 03:38:45;;;;;;;9.10;3.10;;;;;;;12.98;48.56;100175.97;4214607;28;20230;-70
2023/06/01 03:41:11;;;;;;;9.80;2.43;;;;;;;12.93;48.80;100175.66;4216211;28;20711;-68
2023/06/01 03:43:38;;;;;;;8.90;2.80;;;;;;;12.76;49.57;100177.53;4209697;28;20255;-69
2023/06/01 03:46:05;;;;;;;10.97;2.60;;;;;;;12.76;49.46;100169.38;4208105;28;20251;-68
2023/06/01 03:48:31;;;;;;;12.23;2.93;;;;;;;12.77;50.04;100172.94;4200477;28;20668;-70
2023/06/01 03:50:58;;;;;;;11.60;3.00;;;;;;;12.93;49.71;100180.22;4211770;28;20353;-69
2023/06/01 03:53:25;;;;;;;8.63;2.83;;;;;;;12.95;50.00;100181.75;4194067;28;21893;-68
2023/06/01 03:55:52;;;;;;;9.50;2.70;;;;;;;13.00;50.07;100178.53;4217041;28;21702;-68
2023/06/01 03:58:19;;;;;;;6.10;2.70;;;;;;;13.02;50.32;100176.50;4200478;28;26090;-67
2023/06/01 04:00:46;;;;;;;9.17;3.07;;;;;;;13.06;50.78;100174.28;4199392;28;20342;-67
2023/06/01 04:03:14;;;;;;;16.60;3.23;;;;;;;13.09;50.46;100171.25;4217063;28;20507;-68
2023/06/01 04:05:41;;;;;;;7.80;2.77;;;;;;;13.09;51.21;100179.41;4209399;28;20442;-67
2023/06/01 04:08:08;;;;;;;13.10;3.13;;;;;;;13.12;51.55;100181.75;4220393;28;20381;-67
2023/06/01 04:10:35;;;;;;;10.13;3.60;;;;;;;13.21;51.50;100180.72;4211240;28;20250;-69
2023/06/01 04:13:02;;;;;;;12.37;2.80;;;;;;;13.32;51.15;100172.25;4210747;28;25226;-69
2023/06/01 04:15:29;;;;;;;11.83;3.40;;;;;;;13.47;51.08;100175.13;4204979;28;20231;-69
2023/06/01 04:17:55;;;;;;;8.90;3.03;;;;;;;13.51;51.18;100169.34;4211746;28;20654;-68
2023/06/01 04:20:23;;;;;;;14.10;3.13;;;;;;;13.60;51.38;100168.28;4196315;28;21855;-70
2023/06/01 04:22:49;;;;;;;13.47;3.80;;;;;;;13.53;52.09;100162.72;4217110;28;22016;-69
2023/06/01 04:25:17;;;;;;;7.87;3.23;;;;;;;13.45;52.13;100144.53;4187477;28;20244;-72
2023/06/01 04:27:48;;;;;;;12.97;3.80;;;;;;;13.69;52.06;100160.97;4193389;28;20227;-71
2023/06/01 04:30:16;;;;;;;8.07;3.37;;;;;;;13.70;52.56;100158.06;4209231;28;20238;-72
2023/06/01 04:32:47;;;;;;;12.63;4.27;;;;;;;13.72;52.44;100147.00;4222322;28;20232;-73
2023/06/01 04:35:15;;;;;;;11.83;4.40;;;;;;;13.85;52.22;100154.63;4202624;28;21184;-69
2023/06/01 04:37:43;;;;;;;17.97;3.90;;;;;;;13.86;52.74;100157.16;4176812;28;20227;-70
2023/06/01 04:40:10;;;;;;;12.03;4.33;;;;;;;13.95;52.57;100161.53;4203704;28;20361;-70
2023/06/01 04:42:41;;;;;;;10.03;3.80;;;;;;;14.03;53.01;100157.97;4197917;28;20309;-70
2023/06/01 04:45:09;;;;;;;10.60;3.80;;;;;;;14.15;52.70;100155.69;4196394;28;20236;-69
2023/06/01 04:47:37;;;;;;;10.07;3.83;;;;;;;14.19;52.63;100153.47;4210414;28;20234;-70
2023/06/01 04:50:07;;;;;;;12.63;3.73;;;;;;;14.26;52.36;100149.00;4199335;28;20231;-70
2023/06/01 04:52:38;;;;;;;8.43;3.90;;;;;;;14.34;52.33;100156.25;4207070;28;20228;-69
2023/06/01 04:55:06;;;;;;;9.83;4.00;;;;;;;14.53;51.61;100154.94;4212269;28;20298;-69
2023/06/01 04:57:36;;;;;;;7.07;3.80;;;;;;;14.63;51.33;100151.97;4197214;28;20308;-67
2023/06/01 05:00:08;;;;;;;14.07;3.43;;;;;;;14.57;51.36;100143.50;4193662;28;20590;-70
2023/06/01 05:02:35;;;;;;;13.77;4.00;;;;;;;14.81;50.64;100147.13;4229138;28;20239;-70
2023/06/01 05:05:02;;;;;;;10.40;4.07;;;;;;;14.82;50.96;100145.22;4207885;28;20260;-71
2023/06/01 05:07:29;;;;;;;19.90;4.53;;;;;;;14.82;50.37;100137.91;4204147;28;20251;-68
2023/06/01 05:09:55;;;;;;;11.87;3.33;;;;;;;15.03;50.37;100134.47;4221156;28;20235;-73
2023/06/01 05:12:22;;;;;;;14.87;4.67;;;;;;;15.08;50.88;100135.81;4214926;28;21746;-70
2023/06/01 05:14:49;;;;;;;13.50;3.77;;;;;;;15.26;49.96;100136.31;4203457;28;20237;-69
2023/06/01 05:17:16;;;;;;;8.27;3.90;;;;;;;15.36;49.55;100117.81;4170756;28;20229;-68
2023/06/01 05:19:42;;;;;;;11.27;3.80;;;;;;;15.45;48.89;100118.56;4212570;28;22080;-69
2023/06/01 05:22:10;;;;;;;13.57;4.27;;;;;;;15.44;49.02;100127.81;4224839;28;20236;-68
2023/06/01 05:24:36;;;;;;;13.10;3.90;;;;;;;15.65;48.53;100115.28;4210147;28;20279;-69
2023/06/01 05:27:04;;;;;;;12.47;4.10;;;;;;;16.07;47.72;100121.13;4214947;28;20252;-67
2023/06/01 05:29:31;;;;;;;10.40;4.20;;;;;;;16.39;46.85;100118.97;4195069;28;20232;-65
2023/06/01 05:31:57;;;;;;;19.10;4.50;;;;;;;16.89;45.91;100116.28;4216392;28;21625;-68
2023/06/01 05:34:24;;;;;;;10.43;4.50;;;;;;;17.23;45.15;100115.53;4204042;28;20300;-71
2023/06/01 05:36:51;;;;;;;18.13;4.50;;;;;;;17.85;43.78;100120.34;4185033;28;25780;-68
2023/06/01 05:39:17;;;;;;;10.47;3.93;;;;;;;17.94;44.46;100121.00;4209109;28;20228;-69
2023/06/01 05:41:44;;;;;;;15.97;4.43;;;;;;;18.52;42.36;100126.91;4204784;28;20241;-66
2023/06/01 05:44:10;;;;;;;10.80;4.43;;;;;;;18.31;42.14;100122.44;4219672;28;21061;-67
2023/06/01 05:46:37;;;;;;;15.80;4.87;;;;;;;18.41;42.27;100116.56;4197662;28;22305;-70
2023/06/01 05:49:03;;;;;;;8.93;4.37;;;;;;;19.14;40.79;100121.31;4187745;28;20335;-70
2023/06/01 05:51:30;;;;;;;12.90;4.60;;;;;;;20.08;39.50;100114.78;4205441;28;21675;-67
2023/06/01 05:53:57;;;;;;;14.37;4.43;;;;;;;20.49;38.46;100116.25;4200240;28;20245;-67
2023/06/01 05:56:23;;;;;;;9.73;4.30;;;;;;;21.71;36.38;100108.72;4206911;28;20437;-68
2023/06/01 05:58:53;;;;;;;17.73;4.93;;;;;;;22.14;35.85;100106.88;4207263;28;23700;-67
2023/06/01 06:01:20;;;;;;;16.07;3.90;;;;;;;23.10;33.39;100097.84;4203690;28;21556;-70
2023/06/01 06:03:47;;;;;;;16.23;4.47;;;;;;;22.81;34.75;100114.22;4201949;28;20233;-69
2023/06/01 06:06:13;;;;;;;14.38;4.75;;;;;;;23.14;33.76;100109.25;4191471;28;20239;-67
2023/06/01 06:08:40;;;;;;;11.55;4.20;;;;;;;23.36;33.46;100117.81;4225589;28;20313;-66
2023/06/01 06:11:07;;;;;;;19.83;4.20;;;;;;;22.50;34.86;100121.72;4221721;28;20278;-71
2023/06/01 06:13:33;;;;;;;12.10;4.47;;;;;;;22.89;33.84;100113.06;4210378;28;20274;-69
2023/06/01 06:16:00;;;;;;;10.23;3.97;;;;;;;23.98;33.03;100108.97;4222405;28;21135;-69
2023/06/01 06:18:26;;;;;;;9.25;4.22;;;;;;;24.12;31.95;100111.47;4215236;28;20237;-65
2023/06/01 06:20:53;;;;;;;16.80;3.92;;;;;;;22.37;35.21;100099.78;4185727;28;20954;-69
2023/06/01 06:23:20;;;;;;;11.32;3.88;;;;;;;24.40;31.57;100101.50;4224696;28;20247;-67
2023/06/01 06:25:48;;;;;;;14.23;4.22;;;;;;;23.96;31.88;100097.34;4221086;28;21087;-68
2023/06/01 06:28:15;;;;;;;13.15;4.53;;;;;;;24.72;30.20;100104.59;4190574;28;20285;-68
2023/06/01 06:30:42;;;;;;;16.58;3.95;;;;;;;24.65;30.78;100101.13;4212980;28;20243;-68
2023/06/01 06:33:08;;;;;;;15.77;4.15;;;;;;;25.74;29.72;100095.38;4210163;28;20260;-69
2023/06/01 06:35:41;;;;;;;11.88;4.05;;;;;;;27.45;26.38;100097.97;4225071;28;20243;-69
2023/06/01 06:38:07;;;;;;;12.20;3.53;;;;;;;28.08;25.16;100103.56;4201846;28;20243;-69
2023/06/01 06:40:34;;;;;;;19.17;4.20;;;;;;;27.27;26.89;100096.41;4220878;28;24942;-69
2023/06/01 06:43:01;;;;;;;18.90;3.83;;;;;;;27.40;27.02;100095.13;4201476;28;20865;-69
2023/06/01 06:45:27;;;;;;;17.60;4.15;;;;;;;26.55;27.70;100100.22;4219823;28;20310;-68
2023/06/01 06:47:54;;;;;;;11.75;3.60;;;;;;;25.60;28.51;100101.31;4222016;28;20350;-70
2023/06/01 06:50:21;;;;;;;11.88;3.92;;;;;;;25.61;29.23;100091.03;4212657;28;20380;-68
2023/06/01 06:52:47;;;;;;;7.70;3.10;;;;;;;26.88;27.62;100097.53;4200960;28;20240;-68
2023/06/01 06:55:14;;;;;;;14.00;3.38;;;;;;;27.22;26.41;100096.41;4199183;28;20246;-68
2023/06/01 06:57:41;;;;;;;12.50;3.17;;;;;;;26.78;27.07;100089.91;4226915;28;22226;-70
2023/06/01 07:00:08;;;;;;;9.43;3.20;;;;;;;26.56;27.35;100088.03;4193490;28;20241;-69
2023/06/01 07:02:35;;;;;;;10.65;3.50;;;;;;;27.30;26.32;100088.38;4174025;28;20331;-68
2023/06/01 07:05:03;;;;;;;9.50;3.38;;;;;;;28.19;25.95;100087.75;4211023;28;20317;-71
2023/06/01 07:07:30;;;;;;;10.45;3.50;;;;;;;28.15;24.98;100075.50;4235008;28;20271;-71
2023/06/01 07:09:57;;;;;;;7.93;2.92;;;;;;;26.66;27.06;100078.13;4205697;28;20686;-69
2023/06/01 07:12:23;;;;;;;10.25;3.38;;;;;;;27.68;26.11;100088.38;4222400;28;20239;-69
2023/06/01 07:14:50;;;;;;;8.80;2.88;;;;;;;27.13;26.09;100085.78;4200106;28;21532;-70
2023/06/01 07:17:19;;;;;;;7.68;2.72;;;;;;;26.99;26.31;100085.38;4223294;28;21875;-70
2023/06/01 07:19:46;;;;;;;7.75;2.80;;;;;;;26.36;25.78;100080.34;4199623;28;20232;-69
2023/06/01 07:22:13;;;;;;;7.38;2.75;;;;;;;26.30;26.11;100075.84;4225952;28;20246;-70
2023/06/01 07:24:40;;;;;;;9.30;3.03;;;;;;;26.26;26.77;100075.53;4213126;28;20269;-69
2023/06/01 07:27:07;;;;;;;5.90;2.58;;;;;;;25.00;28.29;100073.25;4162854;28;20246;-70
2023/06/01 07:29:34;;;;;;;10.18;3.25;;;;;;;24.19;29.37;100073.47;4200703;28;20240;-70
2023/06/01 07:32:01;;;;;;;14.50;2.77;;;;;;;24.16;29.86;100057.34;4217757;28;20270;-69
2023/06/01 07:34:28;;;;;;;7.47;2.55;;;;;;;23.94;30.77;100054.44;4205782;28;20277;-71
2023/06/01 07:36:58;;;;;;;12.73;2.53;;;;;;;24.21;30.49;100058.28;4213085;28;20352;-69
2023/06/01 07:39:42;;;;;;;12.90;2.70;;;;;;;24.08;30.62;100066.03;4227666;28;20925;-70
2023/06/01 07:42:08;;;;;;;6.78;2.92;;;;;;;24.37;30.74;100064.94;4236509;28;20418;-69
2023/06/01 07:44:35;;;;;;;6.80;2.23;;;;;;;24.63;30.21;100065.41;4215743;28;22004;-71
2023/06/01 07:47:02;;;;;;;7.88;2.40;;;;;;;24.19;31.06;100056.88;4219076;28;23470;-69
2023/06/01 07:49:29;;;;;;;13.70;2.47;;;;;;;23.60;31.70;100057.00;4199446;28;20241;-70
2023/06/01 07:51:56;;;;;;;11.90;2.60;;;;;;;24.31;31.29;100052.09;4210619;28;20227;-71
2023/06/01 07:54:23;;;;;;;11.10;2.15;;;;;;;24.25;31.10;100049.47;4203814;28;22284;-70
2023/06/01 07:56:49;;;;;;;8.93;2.40;;;;;;;24.41;31.16;100051.44;4210447;28;20237;-69
2023/06/01 07:59:16;;;;;;;8.50;2.70;;;;;;;24.34;30.84;100048.84;4200773;28;21157;-69
2023/06/01 08:01:43;;;;;;;11.20;2.45;;;;;;;24.11;31.59;100046.19;4196784;28;25739;-69
2023/06/01 08:04:10;;;;;;;8.88;2.78;;;;;;;23.76;32.48;100045.19;4219286;28;21396;-68
2023/06/01 08:06:38;;;;;;;10.40;2.17;;;;;;;23.50;31.41;100044.66;4208940;28;21418;-70
2023/06/01 08:09:05;;;;;;;12.55;2.53;;;;;;;23.37;33.02;100053.19;4204002;28;20233;-69
2023/06/01 08:11:32;;;;;;;5.68;2.05;;;;;;;22.98;31.88;100042.63;4199154;28;20554;-70
2023/06/01 08:13:59;;;;;;;8.02;2.25;;;;;;;23.94;30.89;100049.75;4178164;28;20468;-68
2023/06/01 08:16:26;;;;;;;8.95;2.30;;;;;;;23.78;31.35;100037.50;4204112;28;20233;-69
2023/06/01 08:18:53;;;;;;;7.70;2.35;;;;;;;23.51;30.54;100035.28;4210588;28;21166;-71
2023/06/01 08:21:20;;;;;;;11.57;2.83;;;;;;;23.61;31.88;100042.13;4204498;28;21142;-69
2023/06/01 08:23:47;;;;;;;8.18;2.45;;;;;;;23.96;30.55;100036.53;4215530;28;21742;-69
2023/06/01 08:26:13;;;;;;;8.43;2.45;;;;;;;23.67;31.14;100036.47;4214123;28;20262;-69
2023/06/01 08:28:41;;;;;;;12.27;2.20;;;;;;;23.42;31.39;100032.06;4225404;28;20267;-70
2023/06/01 08:31:07;;;;;;;12.80;2.67;;;;;;;23.41;31.05;100026.78;4200785;28;21463;-69
2023/06/01 08:33:34;;;;;;;7.47;2.50;;;;;;;23.25;31.25;100039.41;4199100;28;21532;-71
2023/06/01 08:36:01;;;;;;;8.88;2.50;;;;;;;23.89;30.29;100036.63;4201361;28;21144;-70
2023/06/01 08:38:32;;;;;;;8.77;2.38;;;;;;;23.31;30.94;100038.44;4226432;28;20332;-70
2023/06/01 08:41:04;;;;;;;9.80;2.78;;;;;;;23.47;31.56;100027.72;4210610;28;21867;-69
2023/06/01 08:43:32;;;;;;;7.80;2.17;;;;;;;23.14;32.62;100034.72;4206179;28;21837;-69
2023/06/01 08:46:00;;;;;;;8.32;2.45;;;;;;;22.97;32.72;100021.63;4283767;28;20241;-69
2023/06/01 08:48:29;;;;;;;10.98;2.50;;;;;;;23.15;33.05;100019.84;4335642;28;20763;-70
2023/06/01 08:50:57;;;;;;;7.00;2.40;;;;;;;23.43;32.38;100008.03;4338661;28;22353;-69
2023/06/01 08:53:24;;;;;;;5.93;2.50;;;;;;;23.19;31.18;100021.03;4287509;28;21701;-70
2023/06/01 08:55:52;;;;;;;6.00;2.40;;;;;;;22.97;32.72;100009.72;4273384;28;20526;-72
2023/06/01 08:58:19;;;;;;;10.23;2.20;;;;;;;23.35;32.80;100002.88;4265063;28;20237;-69
2023/06/01 09:00:50;;;;;;;8.40;2.53;;;;;;;23.37;32.48;99998.81;4302374;28;20839;-69
2023/06/01 09:03:17;;;;;;;10.17;2.67;;;;;;;23.41;32.16;99990.88;4271748;28;21310;-70
2023/06/01 09:05:47;;;;;;;4.65;1.95;;;;;;;22.87;33.13;100007.56;4287092;28;20598;-71
2023/06/01 09:08:14;;;;;;;7.03;2.20;;;;;;;23.05;32.74;100004.69;4305449;28;20360;-69
2023/06/01 09:10:41;;;;;;;9.90;2.90;;;;;;;22.90;32.64;100002.41;4262568;28;20236;-71
2023/06/01 09:13:07;;;;;;;4.72;2.53;;;;;;;22.68;33.04;99996.66;4216895;28;20227;-69
2023/06/01 09:15:34;;;;;;;11.93;2.37;;;;;;;22.78;33.99;99999.66;4219342;28;20740;-70
2023/06/01 09:18:06;;;;;;;9.65;2.40;;;;;;;22.73;32.57;99996.78;4209635;28;20251;-70
2023/06/01 09:20:33;;;;;;;7.28;2.15;;;;;;;23.13;32.93;100000.72;4179571;28;20351;-69
2023/06/01 09:23:00;;;;;;;18.05;2.72;;;;;;;23.15;32.44;99995.81;4216288;28;20297;-69
2023/06/01 09:25:31;;;;;;;7.40;2.15;;;;;;;23.10;32.46;99991.00;4231421;28;20461;-72
2023/06/01 09:28:00;;;;;;;6.97;2.15;;;;;;;23.18;33.48;99978.81;4209587;28;25429;-68
2023/06/01 09:30:41;;;;;;;7.47;2.30;;;;;;;23.74;32.77;99981.91;4203527;28;20233;-70
2023/06/01 09:33:20;;;;;;;7.22;2.05;;;;;;;23.58;31.74;99986.25;4201993;28;21337;-71
2023/06/01 09:35:48;;;;;;;7.70;2.40;;;;;;;23.06;33.40;99973.25;4215212;28;22765;-70
2023/06/01 09:38:22;;;;;;;7.27;2.60;;;;;;;23.44;33.21;99975.75;4189889;28;21173;-70
2023/06/01 09:41:00;;;;;;;9.23;2.58;;;;;;;23.37;33.21;99982.25;4208422;28;20230;-69
2023/06/01 09:43:27;;;;;;;10.93;2.42;;;;;;;23.48;32.71;99971.38;4203860;28;22114;-70
2023/06/01 09:46:10;;;;;;;10.13;2.77;;;;;;;23.92;32.91;99966.19;4224896;28;20310;-70
2023/06/01 09:48:36;;;;;;;11.10;2.40;;;;;;;23.62;32.54;99970.03;4213238;28;20302;-70
2023/06/01 09:51:04;;;;;;;5.23;2.30;;;;;;;23.48;32.58;99963.97;4199291;28;20304;-68
2023/06/01 09:53:43;;;;;;;12.27;2.53;;;;;;;23.55;32.58;99961.91;4206450;28;20256;-71
2023/06/01 09:56:10;;;;;;;4.68;2.00;;;;;;;23.46;32.35;99966.13;4219521;28;20270;-68
2023/06/01 09:58:39;;;;;;;11.18;2.15;;;;;;;23.44;32.86;99957.22;4200212;28;22275;-68
2023/06/01 10:01:09;;;;;;;7.22;2.88;;;;;;;23.57;33.51;99953.34;4211863;28;20235;-69
2023/06/01 10:03:41;;;;;;;7.38;2.45;;;;;;;23.45;34.01;99956.16;4201224;28;23650;-70
2023/06/01 10:06:11;;;;;;;13.00;2.15;;;;;;;23.63;33.66;99957.88;4221667;28;20248;-71
2023/06/01 10:08:38;;;;;;;4.72;1.85;;;;;;;23.74;33.26;99954.25;4203360;28;20236;-69
2023/06/01 10:11:05;;;;;;;9.90;2.25;;;;;;;23.80;33.88;99959.88;4212363;28;20243;-68
2023/06/01 10:15:25;;;;;;;7.63;2.33;;;;;;;24.16;31.78;99952.25;4270755;27;25987;-69
2023/06/01 10:19:49;;;;;;;5.05;1.88;;;;;;;23.68;32.27;99951.63;4252170;28;20743;-75
2023/06/01 10:22:16;;;;;;;4.97;2.25;;;;;;;23.85;33.52;99944.22;4221821;28;20259;-76
2023/06/01 10:24:43;;;;;;;12.65;3.28;;;;;;;24.07;34.17;99945.44;4227607;28;20266;-71
2023/06/01 10:27:16;;;;;;;13.50;2.45;;;;;;;23.92;33.27;99944.06;4220265;28;20235;-70
2023/06/01 10:29:43;;;;;;;6.82;1.95;;;;;;;24.25;33.53;99947.16;4220475;28;20238;-77
2023/06/01 10:32:45;;;;;;;8.40;2.33;;;;;;;24.60;32.76;99935.81;4208294;28;21564;-68
2023/06/01 10:35:31;;;;;;;11.93;2.78;;;;;;;24.09;31.33;99933.09;4241696;28;20297;-73
2023/06/01 10:38:09;;;;;;;7.95;2.40;;;;;;;24.00;32.04;99949.22;4224815;28;20231;-69
2023/06/01 10:40:37;;;;;;;5.80;2.33;;;;;;;23.86;32.75;99934.84;4222077;28;22150;-68
2023/06/01 10:43:04;;;;;;;5.60;2.40;;;;;;;24.14;31.86;99927.63;4215247;28;20250;-68
2023/06/01 10:45:33;;;;;;;9.73;1.92;;;;;;;23.65;32.29;99928.09;4222920;28;20239;-67
2023/06/01 10:48:01;;;;;;;6.80;2.20;;;;;;;23.77;33.26;99924.44;4230261;28;20241;-68
2023/06/01 10:50:28;;;;;;;6.43;2.28;;;;;;;23.93;33.04;99934.72;4221901;28;20231;-67
2023/06/01 10:52:55;;;;;;;7.57;2.85;;;;;;;23.96;32.84;99931.47;4219696;28;20232;-67
2023/06/01 10:55:24;;;;;;;4.67;2.13;;;;;;;23.89;31.98;99916.94;4213840;28;21810;-68
2023/06/01 10:58:22;;;;;;;10.15;2.80;;;;;;;24.36;32.08;99910.28;4194269;28;20246;-65
2023/06/01 11:00:49;;;;;;;10.23;2.58;;;;;;;24.05;31.52;99907.84;4238988;28;20227;-70
2023/06/01 11:04:49;;;;;;;7.13;2.22;;;;;;;23.90;30.81;99910.31;4295833;27;20566;-72
2023/06/01 11:07:39;;;;;;;7.50;2.50;;;;;;;24.40;31.97;99908.66;4250404;28;20239;-73
2023/06/01 11:10:06;;;;;;;8.70;2.50;;;;;;;24.19;30.91;99908.34;4227178;28;20230;-74
2023/06/01 11:13:10;;;;;;;8.57;2.60;;;;;;;23.98;31.84;99898.03;4238187;28;20240;-71
2023/06/01 11:15:38;;;;;;;5.18;2.28;;;;;;;24.21;32.31;99897.03;4244705;28;20230;-70
2023/06/01 11:18:42;;;;;;;6.38;2.60;;;;;;;24.26;32.35;99893.50;4207143;28;20228;-68
2023/06/01 11:21:20;;;;;;;4.53;2.30;;;;;;;24.19;31.82;99889.00;4236214;28;20429;-67
2023/06/01 11:23:47;;;;;;;9.82;2.50;;;;;;;24.31;33.10;99885.31;4263609;28;20242;-66
2023/06/01 11:26:18;;;;;;;12.98;2.53;;;;;;;24.49;32.07;99892.50;4232221;28;20304;-68
2023/06/01 11:28:47;;;;;;;8.95;2.33;;;;;;;24.49;33.03;99898.03;4227900;28;20294;-68
2023/06/01 11:31:19;;;;;;;6.10;2.33;;;;;;;24.35;32.15;99887.31;4215512;28;20334;-69
2023/06/01 11:33:53;;;;;;;10.23;2.45;;;;;;;24.39;32.95;99889.56;4221784;28;21573;-68
2023/06/01 11:36:23;;;;;;;7.43;2.72;;;;;;;24.61;33.08;99887.69;4237070;28;21286;-69
2023/06/01 11:38:51;;;;;;;7.32;2.17;;;;;;;24.52;32.89;99875.38;4229784;28;21872;-67